Arlington, TN

1:39 AM CST on December 20, 2014 (GMT -0600)
Memphis International | Change Station
CLOSE
Current Station
Airport
Location: Memphis,
Elevation: 331 ft
Nearby Weather Stations

Elev 331 ft 35.06 °N, 89.99 °W | Updated 45 minutes ago

Mostly Cloudy
Mostly Cloudy
39 °F
Feels Like 36 °F
N
5
Wind Variable Wind from NNE

Today
High -- | Low -- °F
--% Chance of Precip.
Yesterday
High -- | Low -- °F
Precip. -- in
7:03 AM 4:49 PM
Waning Crescent, 4% visible
Pressure 30.22 in
Visibility 9.0 miles
Clouds Few 9000 ft
Windchill 36 °F
Dew Point 32 °F
Humidity 76%
Rainfall 0.00 in
Snow Depth Not available.
UV 0 out of 12
Pollen .10 out of 12
Air Quality Not available.
Flu Activity Not available.
METAR KMEM 200654Z 03004KT 9SM FEW090 04/00 A3022 RMK AO2 SLP234 T00390000 $

More Conditions Fewer Conditions

Pressure 30.22 in
Visibility 9.0 miles
Clouds Few 9000 ft
Windchill 36 °F
Dew Point 32 °F
Humidity 76%
Rainfall 0.00 in
Snow Depth Not available.
UV 0 out of 12
Pollen .10 out of 12
Air Quality Not available.
Flu Activity Not available.
METAR KMEM 200654Z 03004KT 9SM FEW090 04/00 A3022 RMK AO2 SLP234 T00390000 $

More Conditions Fewer Conditions

10-Day Weather Forecast

Almanac

Astronomy

Dec. 20, 2014 Rise Set
Actual Time
Civil Twilight
Nautical Twilight
Astronomical Twilight
Moon
Length of Visible Light
Length of Day
Tomorrow will be .
, % of the Moon is Illuminated

Today's Extremes

State Highs State Lows

Community

WunderPhotos

Upload Photos

1,779,146 photos uploaded!

WunderBlogs® & News

Nearby

Air Quality

  Air Quality AQ Index Pollutant
Not available.

Snow Depth

Station Depth Elevation

Earthquake Activity

City Distance Mag. Time & Date
Minimum magnitude displayed is 2.5.

Coastal Water Temperatures

Place Temperature

Nearby Weather Stations